24 september 2022

Tijd Code Weer Temp. Zicht Plafond Wind METAR/SPECI
18:30
V
18 °C 10 km+ 9.400 ft 320° 320° 8 kt METAR LFBC 241630Z AUTO 32008KT 290V360 9999 FEW022 BKN094 BKN110 18/12 Q1014 TEMPO 4000 SHRA SCT025TCU
18:00
V
19 °C 10 km+ 8.400 ft 310° 310° 7 kt METAR LFBC 241600Z AUTO 31007KT 280V340 9999 FEW022/// OVC084/// //////CB 19/13 Q1014 TEMPO 4000 SHRA
17:30
V
19 °C 10 km+ - 310° 310° 11 kt METAR LFBC 241530Z AUTO 31011KT 270V350 CAVOK 19/11 Q1014 TEMPO 4000 SHRA SCT025TCU
17:00
V
20 °C 10 km+ - 300° 300° 10 kt METAR LFBC 241500Z AUTO 30010KT 270V330 9999 //////TCU 20/12 Q1014 TEMPO 4000 SHRA
16:30
V
19 °C 10 km+ - 300° 300° 9 kt METAR LFBC 241430Z AUTO 30009KT 270V330 9999 //////CB 19/11 Q1014 TEMPO 4000 SHRA
16:00
V
18 °C 10 km+ 8.400 ft 300° 300° 10 kt METAR LFBC 241400Z AUTO 30010KT 270V330 9999 -RA FEW025/// SCT070/// BKN084/// //////CB 18/13 Q1014 TEMPO 4000 SHRA
15:30
V
19 °C 10 km+ 19.000 ft 290° 290° 10 kt METAR LFBC 241330Z AUTO 29010KT 240V330 9999 SCT028/// OVC190/// //////CB 19/12 Q1014 TEMPO 4000 SHRA
15:00
V
19 °C 10 km+ 18.000 ft 300° 300° 11 kt METAR LFBC 241300Z AUTO 30011KT 270V350 9999 SCT027 SCT040 BKN180 19/12 Q1014 TEMPO 4000 SHRA SCT025TCU
14:30
V
20 °C 10 km+ - 310° 310° 12 kt METAR LFBC 241230Z AUTO 31012KT 270V340 9999 FEW029 SCT190 20/12 Q1015 TEMPO 4000 SHRA SCT025TCU
14:00
V
20 °C 10 km+ - 310° 310° 10 kt METAR LFBC 241200Z AUTO 31010KT 280V340 9999 FEW027 SCT070 20/11 Q1015 TEMPO 4000 SHRA SCT025TCU
13:30
V
21 °C 10 km+ - 290° 290° 9 kt METAR LFBC 241130Z AUTO 29009KT 260V340 9999 FEW034 21/10 Q1015 TEMPO 4000 SHRA SCT025TCU
13:00
V
20 °C 10 km+ - 310° 310° 10 kt METAR LFBC 241100Z AUTO 31010KT 260V340 9999 FEW025 SCT054 20/13 Q1015 TEMPO 4000 SHRA SCT025TCU
12:30
V
20 °C 10 km+ 3.400 ft 320° 320° 10 kt METAR LFBC 241030Z AUTO 32010KT 280V010 9999 SCT025/// BKN034/// BKN044/// //////CB 20/13 Q1015 TEMPO 4000 SHRA
12:00
V
19 °C 10 km+ 8.200 ft 320° 320° 6 kt METAR LFBC 241000Z AUTO 32006KT 280V360 9999 FEW019/// SCT025/// BKN082/// //////TCU 19/15 Q1015 TEMPO 4000 SHRA
11:30
V
19 °C 10 km+ 7.600 ft 330° 330° 6 kt METAR LFBC 240930Z AUTO 33006KT 290V010 9999 FEW019/// SCT054/// OVC076/// //////CB 19/15 Q1015 TEMPO 4000 SHRA
11:00
M
18 °C 10 km+ 1.700 ft 320° 320° 5 kt METAR LFBC 240900Z AUTO 32005KT 270V010 9999 BKN017 BKN023 BKN029 18/15 Q1015 TEMPO 4000 SHRA SCT025TCU
10:30
V
17 °C 10 km+ - Var Var 3 kt METAR LFBC 240830Z AUTO VRB03KT 9999 FEW018/// SCT220/// //////CB 17/17 Q1015 TEMPO 4000 SHRA
10:00
V
16 °C 10 km+ - Var Var 2 kt METAR LFBC 240800Z AUTO VRB02KT 9999 ///TCU 16/15 Q1014 TEMPO 3000 SHRA BKN020CB
09:30
V
15 °C 10 km+ 7.600 ft 330° 330° 5 kt METAR LFBC 240730Z AUTO 33005KT 9999 FEW020 BKN076 OVC100 15/15 Q1014 TEMPO 3000 SHRA BKN020CB
09:00
V
13 °C 10 km+ 8.800 ft Var 000° 0 kt METAR LFBC 240700Z AUTO 00000KT 9999 FEW023/// BKN088/// BKN120/// //////CB 13/13 Q1014 TEMPO 3000 SHRA VV///
08:30
V
12 °C 10 km+ 7.400 ft Var 000° 0 kt METAR LFBC 240630Z AUTO 00000KT 9999 FEW001 BKN074 12/12 Q1014 TEMPO 3000 SHRA BKN020CB
08:00
L
12 °C 450 m - 110° 110° 2 kt METAR LFBC 240600Z AUTO 11002KT 0600 0450 R24/1100U FG VV/// 12/11 Q1014 TEMPO 3000 SHRA BKN020TCU
07:30
L
12 °C 500 m - Var Var 2 kt METAR LFBC 240530Z AUTO VRB02KT 0650 0500 R24/1100U FG NSC 12/11 Q1014 TEMPO 3000 SHRA BKN020TCU
07:00
L
13 °C 800 m - Var 000° 0 kt METAR LFBC 240500Z AUTO 00000KT 1000 0800 R24/1100U BCFG FEW002 13/13 Q1013 TEMPO 3000 SHRA BKN020TCU
06:30
V
13 °C 8 km - 190° 190° 1 kt METAR LFBC 240430Z AUTO 19001KT 8000 FEW019 SCT044 13/13 Q1013 TEMPO 3000 SHRA BKN020TCU
06:00
V
14 °C 10 km+ 6.000 ft Var Var 2 kt METAR LFBC 240400Z AUTO VRB02KT 9999 FEW020 SCT048 BKN060 14/13 Q1013 TEMPO 3000 SHRA BKN020TCU
05:30
V
14 °C 10 km+ 3.900 ft 250° 250° 3 kt METAR LFBC 240330Z AUTO 25003KT 9999 SCT022 BKN039 BKN046 14/13 Q1014 TEMPO 3000 SHRA BKN020TCU
05:00
V
14 °C 10 km+ 4.700 ft Var Var 2 kt METAR LFBC 240300Z AUTO VRB02KT 9999 SCT035 BKN047 BKN076 14/14 Q1014 TEMPO 3000 SHRA BKN020TCU
04:30
L
10 °C 10 km+ - 210° 210° 4 kt METAR LFBC 240230Z AUTO 21004KT 9999 VV/// 10/10 Q1014 TEMPO 3000 SHRA BKN020TCU
04:00
L
10 °C 650 m - 120° 120° 2 kt METAR LFBC 240200Z AUTO 12002KT 0750 0650 R24/0750D FG VV/// 10/10 Q1014 TEMPO 3000 SHRA BKN020TCU
03:30
L
11 °C 800 m - Var 000° 0 kt METAR LFBC 240130Z AUTO 00000KT 9000 0800 R24/P2000 BCFG FEW003/// ///CB 11/10 Q1015 TEMPO 3000 SHRA
03:00
V
11 °C 10 km+ - Var Var 1 kt METAR LFBC 240100Z AUTO VRB01KT CAVOK 11/11 Q1015 TEMPO 3000 SHRA BKN020TCU
02:30
V
10 °C 10 km+ - 160° 160° 2 kt METAR LFBC 240030Z AUTO 16002KT 9999 FEW003 SCT110 10/10 Q1015 TEMPO 3000 SHRA BKN020TCU
02:00
L
10 °C 1 km - Var 000° 0 kt METAR LFBC 240000Z AUTO 00000KT 3200 1000 R24/P2000 BR FEW003 SCT100 10/09 Q1016 TEMPO 1500 MIFG
01:30
L
11 °C 350 m - Var 000° 0 kt METAR LFBC 232330Z AUTO 00000KT 7000 0350 R24/P2000 BCFG NSC 11/11 Q1016 TEMPO 1500 MIFG
01:00
V
11 °C 10 km+ - Var 000° 0 kt METAR LFBC 232300Z AUTO 00000KT 9999 FEW028 11/11 Q1016 TEMPO 1500 MIFG
00:30
V
11 °C 10 km+ - Var 000° 0 kt METAR LFBC 232230Z AUTO 00000KT 9999 FEW026 11/10 Q1016 TEMPO 1500 MIFG
00:00
V
13 °C 10 km+ - 270° 270° 2 kt METAR LFBC 232200Z AUTO 27002KT CAVOK 13/12 Q1016 TEMPO 1500 MIFG

23 september 2022

Tijd Code Weer Temp. Zicht Plafond Wind METAR/SPECI
23:30
M
12 °C 10 km+ 2.600 ft 300° 300° 1 kt METAR LFBC 232130Z AUTO 30001KT 9999 BKN026 BKN032 BKN039 12/12 Q1016 TEMPO 1500 MIFG
23:00
V
12 °C 10 km+ 16.000 ft Var 000° 0 kt METAR LFBC 232100Z AUTO 00000KT 9999 SCT029 BKN160 12/11 Q1016 TEMPO 1500 MIFG
22:30
V
13 °C 10 km+ - Var 000° 0 kt METAR LFBC 232030Z AUTO 00000KT CAVOK 13/12 Q1016 TEMPO 1500 MIFG
22:00
V
15 °C 10 km+ - Var 000° 0 kt METAR LFBC 232000Z AUTO 00000KT CAVOK 15/13 Q1016 TEMPO 1500 MIFG
21:30
V
15 °C 10 km+ - Var 000° 0 kt METAR LFBC 231930Z AUTO 00000KT CAVOK 15/13 Q1016 TEMPO 1500 MIFG
21:00
V
17 °C 10 km+ - Var 000° 0 kt METAR LFBC 231900Z AUTO 00000KT CAVOK 17/14 Q1016 NOSIG
20:30
V
17 °C 10 km+ 19.000 ft 310° 310° 3 kt METAR LFBC 231830Z AUTO 31003KT 9999 FEW024 SCT150 BKN190 17/14 Q1016 NOSIG
20:00
V
18 °C 10 km+ 12.000 ft 310° 310° 4 kt METAR LFBC 231800Z AUTO 31004KT 270V350 9999 FEW024 SCT052 BKN120 18/14 Q1016 NOSIG
19:30
V
19 °C 10 km+ 13.000 ft 280° 280° 4 kt METAR LFBC 231730Z AUTO 28004KT 250V330 9999 SCT023 SCT052 BKN130 19/14 Q1016 NOSIG
19:00
M
19 °C 10 km+ 2.300 ft 300° 300° 5 kt METAR LFBC 231700Z AUTO 30005KT 260V330 9999 BKN023 BKN037 BKN150 19/14 Q1016 NOSIG
18:30
M
20 °C 10 km+ 2.300 ft 280° 280° 7 kt METAR LFBC 231630Z AUTO 28007KT 9999 BKN023 BKN028 BKN033 20/14 Q1016 NOSIG
18:00
V
19 °C 10 km+ 12.000 ft 270° 270° 4 kt METAR LFBC 231600Z AUTO 27004KT 230V320 9999 FEW030 OVC120 19/15 Q1016 NOSIG
17:30
V
19 °C 10 km+ 9.400 ft 290° 290° 6 kt METAR LFBC 231530Z AUTO 29006KT 9999 FEW019 OVC094 19/15 Q1016 NOSIG
17:00
V
19 °C 10 km+ - 270° 270° 6 kt METAR LFBC 231500Z AUTO 27006KT CAVOK 19/15 Q1016 NOSIG
16:30
V
20 °C 10 km+ - 260° 260° 5 kt METAR LFBC 231430Z AUTO 26005KT 210V280 CAVOK 20/14 Q1016 NOSIG
16:00
V
20 °C 10 km+ - 230° 230° 4 kt METAR LFBC 231400Z AUTO 23004KT 200V270 CAVOK 20/15 Q1016 NOSIG
15:30
V
20 °C 10 km+ - 250° 250° 4 kt METAR LFBC 231330Z AUTO 25004KT 210V300 CAVOK 20/15 Q1016 NOSIG
15:00
V
20 °C 10 km+ - 270° 270° 6 kt METAR LFBC 231300Z AUTO 27006KT CAVOK 20/14 Q1016 NOSIG
14:30
V
21 °C 10 km+ - 280° 280° 5 kt METAR LFBC 231230Z AUTO 28005KT 240V320 CAVOK 21/15 Q1016 NOSIG
14:00
V
20 °C 10 km+ - 250° 250° 5 kt METAR LFBC 231200Z AUTO 25005KT 210V300 CAVOK 20/14 Q1017 NOSIG
13:30
V
20 °C 10 km+ - 260° 260° 6 kt METAR LFBC 231130Z AUTO 26006KT 220V300 CAVOK 20/15 Q1017 NOSIG
13:00
V
20 °C 10 km+ 11.000 ft 270° 270° 5 kt METAR LFBC 231100Z AUTO 27005KT 240V310 9999 FEW019 BKN110 BKN150 20/15 Q1017 NOSIG
12:30
V
20 °C 10 km+ - 260° 260° 7 kt METAR LFBC 231030Z AUTO 26007KT 230V300 CAVOK 20/15 Q1017 NOSIG
12:00
V
20 °C 10 km+ - 260° 260° 5 kt METAR LFBC 231000Z AUTO 26005KT 190V300 CAVOK 20/15 Q1017 NOSIG
11:30
V
19 °C 10 km+ - 220° 220° 4 kt METAR LFBC 230930Z AUTO 22004KT CAVOK 19/15 Q1017 NOSIG
11:00
V
18 °C 10 km+ - 210° 210° 6 kt METAR LFBC 230900Z AUTO 21006KT CAVOK 18/16 Q1017 NOSIG
10:30
V
17 °C 10 km+ - 190° 190° 4 kt METAR LFBC 230830Z AUTO 19004KT 160V220 CAVOK 17/15 Q1017 NOSIG
10:00
V
16 °C 10 km+ - 200° 200° 3 kt METAR LFBC 230800Z AUTO 20003KT 160V220 CAVOK 16/15 Q1017 NOSIG
09:30
V
13 °C 10 km+ - Var Var 2 kt METAR LFBC 230730Z AUTO VRB02KT 9999 NSC 13/13 Q1017 NOSIG
09:00
V
12 °C 10 km+ - Var Var 2 kt METAR LFBC 230700Z AUTO VRB02KT CAVOK 12/12 Q1016 NOSIG
08:30
V
11 °C 10 km+ - Var Var 1 kt METAR LFBC 230630Z AUTO VRB01KT CAVOK 11/10 Q1016 NOSIG
08:00
V
10 °C 9 km - 110° 110° 2 kt METAR LFBC 230600Z AUTO 11002KT 9000 NSC 10/10 Q1016 NOSIG
07:30
V
9 °C 8 km 22.000 ft 150° 150° 2 kt METAR LFBC 230530Z AUTO 15002KT 8000 FEW010 OVC220 09/09 Q1016 NOSIG
07:00
V
9 °C 9 km 22.000 ft 180° 180° 3 kt METAR LFBC 230500Z AUTO 18003KT 9000 FEW011 BKN220 OVC240 09/09 Q1016
06:30
L
9 °C 1 km 900 ft 140° 140° 3 kt METAR LFBC 230430Z AUTO 14003KT 7000 1000 R24/P2000 OVC009 09/08 Q1016
06:00
I
10 °C 3,6 km 22.000 ft 160° 160° 3 kt METAR LFBC 230400Z AUTO 16003KT 9000 3600 SCT009 BKN220 10/09 Q1016
05:30
I
9 °C 1,6 km - 160° 160° 3 kt METAR LFBC 230330Z AUTO 16003KT 7000 1600 SCT008 09/09 Q1016
05:00
L
9 °C 900 m - 160° 160° 1 kt METAR LFBC 230300Z AUTO 16001KT 7000 0900 R24/P2000 BCFG SCT008 09/09 Q1016
04:30
L
9 °C 650 m 700 ft Var 000° 0 kt METAR LFBC 230230Z AUTO 00000KT 5000 0650 R24/P2000 BCFG OVC007 09/08 Q1016
04:00
L
9 °C 700 m - 120° 120° 3 kt METAR LFBC 230200Z AUTO 12003KT 9999 0700 R24/P2000 BCFG VV/// 09/09 Q1017
03:30
L
9 °C 600 m - Var 000° 0 kt METAR LFBC 230130Z AUTO 00000KT 0900 0600 R24/0900D FG VV/// 09/08 Q1017
03:00
V
8 °C 10 km+ - Var 000° 0 kt METAR LFBC 230100Z AUTO 00000KT CAVOK 08/07 Q1017
02:30
V
9 °C 10 km+ - 280° 280° 1 kt METAR LFBC 230030Z AUTO 28001KT CAVOK 09/05 Q1017
02:00
V
10 °C 10 km+ - 300° 300° 3 kt METAR LFBC 230000Z AUTO 30003KT CAVOK 10/09 Q1017
01:30
V
11 °C 10 km+ - 300° 300° 2 kt METAR LFBC 222330Z AUTO 30002KT CAVOK 11/09 Q1017
01:00
V
11 °C 10 km+ - Var 000° 0 kt METAR LFBC 222300Z AUTO 00000KT CAVOK 11/10 Q1017
00:30
V
9 °C 10 km+ - Var 000° 0 kt METAR LFBC 222230Z AUTO 00000KT CAVOK 09/07 Q1018
00:00
V
10 °C 10 km+ - Var 000° 0 kt METAR LFBC 222200Z AUTO 00000KT CAVOK 10/07 Q1018

22 september 2022

Tijd Code Weer Temp. Zicht Plafond Wind METAR/SPECI
23:30
V
12 °C 10 km+ - 320° 320° 2 kt METAR LFBC 222130Z AUTO 32002KT CAVOK 12/10 Q1018
23:00
V
11 °C 10 km+ - Var 000° 0 kt METAR LFBC 222100Z AUTO 00000KT CAVOK 11/08 Q1018
22:30
V
12 °C 10 km+ - Var Var 1 kt METAR LFBC 222030Z AUTO VRB01KT CAVOK 12/08 Q1018
22:00
V
14 °C 10 km+ - 310° 310° 3 kt METAR LFBC 222000Z AUTO 31003KT CAVOK 14/10 Q1018
21:30
V
14 °C 10 km+ - 320° 320° 3 kt METAR LFBC 221930Z AUTO 32003KT CAVOK 14/10 Q1018
21:00
V
15 °C 10 km+ - 300° 300° 3 kt METAR LFBC 221900Z AUTO 30003KT CAVOK 15/09 Q1018
20:30
V
17 °C 10 km+ - 310° 310° 2 kt METAR LFBC 221830Z AUTO 31002KT CAVOK 17/10 Q1018
20:00
V
17 °C 10 km+ - 340° 340° 3 kt METAR LFBC 221800Z AUTO 34003KT CAVOK 17/09 Q1017
19:30
V
19 °C 10 km+ - 330° 330° 6 kt METAR LFBC 221730Z AUTO 33006KT 300V360 CAVOK 19/09 Q1017
19:00
V
20 °C 10 km+ - 300° 300° 9 kt METAR LFBC 221700Z AUTO 30009KT CAVOK 20/09 Q1017 NOSIG
18:30
V
21 °C 10 km+ - 310° 310° 8 kt METAR LFBC 221630Z AUTO 31008KT CAVOK 21/08 Q1017 NOSIG
18:00
V
22 °C 10 km+ - 280° 280° 7 kt METAR LFBC 221600Z AUTO 28007KT CAVOK 22/09 Q1017 NOSIG
17:30
V
22 °C 10 km+ - 310° 310° 7 kt METAR LFBC 221530Z AUTO 31007KT 270V340 CAVOK 22/09 Q1018 NOSIG
17:00
V
23 °C 10 km+ - 310° 310° 8 kt METAR LFBC 221500Z AUTO 31008KT 270V340 CAVOK 23/08 Q1018 NOSIG
Oudere gegevens

Met cookies volgen wij en derde partijen jouw internetgedrag binnen onze site. Als je verdergaat gaan we ervan uit dat je dit goedvindt. Meer info